• Join FlightAware (Why Join?)
  • Login
  • US Flag 
10:15PM EDT


 

Airport Tracker/Info


-or-


 

Live Flight TrackerFlight Track Log ✈ ASQ4633 ✈ 24-Apr-2013 ✈ KBTV - KEWR

Flight Track Log - Related Links

Times and Time Zones

All times are in EDT time to prevent confusion due to time zone crossing. See the ASQ4633 flight status page for this flight to view local times or setup timezone preferences in your user account.

Time Position Orientation Groundspeed Altitude Reporting Facility
EDT Latitude Longitude Course Direction KTS MPH feet Rate Location/Type
04:16PM 44.3739 -73.1458 196° South 230 265 4,500  Level Boston Center
04:17PM 44.3236 -73.1683 198° South 230 265 7,200 2,400 Climbing Boston Center
04:18PM 44.1981 -73.2505 190° South  Level FlightAware Approximate
04:18PM 44.2589 -73.1967 197° South 235 270 9,400  Level Boston Center
04:19PM 44.1292 -73.2677 190° South  Level FlightAware Approximate
04:19PM 44.1817 -73.1928 178° South 264 304 10,900  Level Boston Center
04:20PM 44.0606 -73.2858 196° South  Level FlightAware Approximate
04:20PM 44.0922 -73.1858 177° South 306 352 11,900  Level Boston Center
04:21PM 43.9934 -73.3127 196° South  Level FlightAware Approximate
04:21PM 43.9964 -73.1817 178° South 341 392 13,900  Level Boston Center
04:22PM 43.9214 -73.1781 178° South 341 392 15,800 2,400 Climbing Boston Center
04:23PM 43.8131 -73.1708 177° South 341 392 18,700 2,520 Climbing Boston Center
04:24PM 43.7214 -73.1928 190° South 319 367 20,900 1,620 Climbing Boston Center
04:25PM 43.6458 -73.2492 208° Southwest 303 349 22,000 540 Climbing Boston Center
04:26PM 43.5578 -73.3197 210° Southwest 334 384 22,000  Level Boston Center
04:27PM 43.4697 -73.3900 210° Southwest 358 412 22,000  Level Boston Center
04:28PM 43.3878 -73.4600 212° Southwest 365 420 22,000  Level Boston Center
04:29PM 43.3039 -73.5272 210° Southwest 365 420 22,000  Level Boston Center
04:30PM 43.2197 -73.5939 210° Southwest 360 414 22,000 -840 Level Boston Center
04:31PM 43.1319 -73.6408 201° Southwest 349 402 20,400 -1,500 Descending Boston Center
04:32PM 43.0503 -73.6761 198° South 349 402 19,100 -1,320 Descending Boston Center
04:34PM 42.9272 -73.7369 200° South  Level FlightAware Approximate
04:34PM 42.8764 -73.7489 200° South 338 389 16,500  Level Boston Center
04:35PM 42.7675 -73.8006 199° South 326 375 16,000 -240 Descending Boston Center
04:36PM 42.6814 -73.8381 198° South 332 382 16,000 -60 Level Boston Center
04:37PM 42.5936 -73.8728 196° South 326 375 15,900  Descending Boston Center
04:38PM 42.5306 -73.9022 199° South 297 342 16,000  Climbing Boston Center
04:39PM 42.4614 -73.9317 197° South 247 284 16,000  Level Boston Center
04:40PM 42.4092 -73.9558 199° South 231 266 16,000  Level Boston Center
04:41PM 42.3419 -73.9850 198° South 231 266 16,000  Level Boston Center
04:42PM 42.2875 -74.0089 198° South 231 266 16,000  Level Boston Center
04:43PM 42.2225 -74.0381 198° South 231 266 16,000  Level Boston Center
04:44PM 42.1700 -74.0619 199° South 231 266 16,000  Level Boston Center
04:45PM 42.1008 -74.0911 197° South 236 272 16,000 -300 Level Boston Center
04:46PM 42.0272 -74.1253 199° South 266 306 15,400 -900 Descending Boston Center
04:47PM 41.9622 -74.1544 198° South 278 320 14,300 -1,200 Descending Boston Center
04:48PM 41.8825 -74.1886 198° South 278 320 13,100 -960 Descending Boston Center
04:49PM 41.8194 -74.2175 199° South 270 311 12,400 -840 Descending Boston Center
04:50PM 41.7419 -74.2514 198° South 265 305 11,500 -840 Descending Boston Center
04:51PM 41.6769 -74.2772 197° South 270 311 10,800 -780 Descending Boston Center
04:52PM 41.6014 -74.3111 199° South 265 305 10,000 -840 Descending Boston Center
04:53PM 41.5383 -74.3372 197° South 265 305 9,200 -900 Descending Boston Center
04:54PM 41.4628 -74.3708 198° South 265 305 8,300 -840 Descending Boston Center
04:56PM 41.3667 -74.4167 200° South 241 277 7,200 -540 Descending New York TRACON
04:57PM 41.3167 -74.4333 194° South 225 259 7,100 -540 Descending New York TRACON
04:58PM 41.2500 -74.4667 201° Southwest 228 262 6,200 -540 Descending New York TRACON
04:59PM 41.2000 -74.4833 194° South 194 223 6,100 -60 Descending New York TRACON
05:00PM 41.1500 -74.5000 194° South 192 221 6,100 -300 Level New York TRACON
05:01PM 41.1333 -74.4167 105° East 262 302 5,500 -540 Descending New York TRACON
05:02PM 41.1000 -74.3333 118° Southeast 239 275 5,100 -240 Descending New York TRACON
05:03PM 41.0667 -74.2667 124° Southeast 239 275 5,100 -360 Level New York TRACON
05:04PM 41.0333 -74.2000 124° Southeast 204 235 4,400 -540 Descending New York TRACON
05:05PM 40.9833 -74.1667 153° Southeast 185 213 4,100 -180 Descending New York TRACON
05:06PM 40.9500 -74.1333 143° Southeast 180 207 4,100 -420 Level New York TRACON
05:07PM 40.9000 -74.1000 153° Southeast 179 206 3,300 -540 Descending New York TRACON
05:08PM 40.8500 -74.0667 153° Southeast 168 193 3,100 -240 Descending New York TRACON